sensor_id;sensor_type;location;lat;lon;timestamp;pressure;altitude;pressure_sealevel;temperature;humidity
22651;BME280;11492;42.646;23.400;2024-02-23T00:01:51;94754.59;;;6.96;65.02
22651;BME280;11492;42.646;23.400;2024-02-23T00:04:17;94778.78;;;7.17;64.96
22651;BME280;11492;42.646;23.400;2024-02-23T00:06:45;94761.81;;;7.00;64.12
22651;BME280;11492;42.646;23.400;2024-02-23T00:09:11;94777.78;;;7.18;64.45
22651;BME280;11492;42.646;23.400;2024-02-23T00:11:40;94786.28;;;7.19;64.50
22651;BME280;11492;42.646;23.400;2024-02-23T00:14:11;94775.88;;;7.12;64.75
22651;BME280;11492;42.646;23.400;2024-02-23T00:16:38;94750.28;;;6.89;65.01
22651;BME280;11492;42.646;23.400;2024-02-23T00:19:10;94789.69;;;7.03;65.00
22651;BME280;11492;42.646;23.400;2024-02-23T00:21:39;94790.66;;;7.02;64.80
22651;BME280;11492;42.646;23.400;2024-02-23T00:24:08;94787.78;;;6.97;64.89
22651;BME280;11492;42.646;23.400;2024-02-23T00:26:33;94748.03;;;6.86;64.66
22651;BME280;11492;42.646;23.400;2024-02-23T00:28:59;94775.13;;;6.96;64.88
22651;BME280;11492;42.646;23.400;2024-02-23T00:31:25;94781.88;;;6.89;64.88
22651;BME280;11492;42.646;23.400;2024-02-23T00:33:51;94777.88;;;6.79;64.79
22651;BME280;11492;42.646;23.400;2024-02-23T00:36:17;94771.63;;;6.73;64.99
22651;BME280;11492;42.646;23.400;2024-02-23T00:38:43;94746.31;;;6.63;65.39
22651;BME280;11492;42.646;23.400;2024-02-23T00:41:09;94778.34;;;6.82;65.38
22651;BME280;11492;42.646;23.400;2024-02-23T00:43:41;94767.13;;;6.83;65.15
22651;BME280;11492;42.646;23.400;2024-02-23T00:46:07;94752.88;;;6.73;65.05
22651;BME280;11492;42.646;23.400;2024-02-23T00:48:34;94764.41;;;6.85;64.90
22651;BME280;11492;42.646;23.400;2024-02-23T00:51:01;94763.75;;;6.83;65.50
22651;BME280;11492;42.646;23.400;2024-02-23T00:53:30;94746.63;;;6.75;65.47
22651;BME280;11492;42.646;23.400;2024-02-23T00:55:56;94745.81;;;6.75;65.68
22651;BME280;11492;42.646;23.400;2024-02-23T00:58:22;94749.66;;;6.79;65.24
22651;BME280;11492;42.646;23.400;2024-02-23T01:00:47;94756.22;;;6.81;65.48
22651;BME280;11492;42.646;23.400;2024-02-23T01:03:13;94753.81;;;6.80;65.58
22651;BME280;11492;42.646;23.400;2024-02-23T01:05:39;94751.56;;;6.77;65.04
22651;BME280;11492;42.646;23.400;2024-02-23T01:08:05;94745.31;;;6.71;65.61
22651;BME280;11492;42.646;23.400;2024-02-23T01:10:31;94750.47;;;6.71;65.48
22651;BME280;11492;42.646;23.400;2024-02-23T01:12:57;94758.97;;;6.64;66.21
22651;BME280;11492;42.646;23.400;2024-02-23T01:15:23;94741.19;;;6.63;65.87
22651;BME280;11492;42.646;23.400;2024-02-23T01:17:49;94725.63;;;6.56;66.51
22651;BME280;11492;42.646;23.400;2024-02-23T01:20:15;94741.81;;;6.65;66.25
22651;BME280;11492;42.646;23.400;2024-02-23T01:22:40;94738.47;;;6.64;65.94
22651;BME280;11492;42.646;23.400;2024-02-23T01:25:06;94715.06;;;6.51;65.44
22651;BME280;11492;42.646;23.400;2024-02-23T01:27:32;94742.31;;;6.60;65.42
22651;BME280;11492;42.646;23.400;2024-02-23T01:29:58;94743.59;;;6.64;66.38
22651;BME280;11492;42.646;23.400;2024-02-23T01:32:24;94731.59;;;6.49;66.27
22651;BME280;11492;42.646;23.400;2024-02-23T01:34:49;94711.88;;;6.34;66.08
22651;BME280;11492;42.646;23.400;2024-02-23T01:37:15;94727.41;;;6.48;65.90
22651;BME280;11492;42.646;23.400;2024-02-23T01:39:41;94726.44;;;6.49;65.95
22651;BME280;11492;42.646;23.400;2024-02-23T01:42:08;94717.13;;;6.56;66.05
22651;BME280;11492;42.646;23.400;2024-02-23T01:44:34;94724.97;;;6.62;65.83
22651;BME280;11492;42.646;23.400;2024-02-23T01:47:00;94704.47;;;6.46;65.47
22651;BME280;11492;42.646;23.400;2024-02-23T01:49:25;94714.91;;;6.61;65.56
22651;BME280;11492;42.646;23.400;2024-02-23T01:51:58;94714.41;;;6.65;65.58
22651;BME280;11492;42.646;23.400;2024-02-23T01:54:24;94723.72;;;6.58;66.66
22651;BME280;11492;42.646;23.400;2024-02-23T01:56:51;94724.84;;;6.56;66.16
22651;BME280;11492;42.646;23.400;2024-02-23T01:59:18;94696.47;;;6.42;66.79
22651;BME280;11492;42.646;23.400;2024-02-23T02:01:45;94705.47;;;6.38;66.75
22651;BME280;11492;42.646;23.400;2024-02-23T02:04:11;94694.22;;;6.54;65.38
22651;BME280;11492;42.646;23.400;2024-02-23T02:06:37;94691.00;;;6.60;66.03
22651;BME280;11492;42.646;23.400;2024-02-23T02:09:03;94701.28;;;6.60;66.28
22651;BME280;11492;42.646;23.400;2024-02-23T02:11:29;94696.63;;;6.64;65.74
22651;BME280;11492;42.646;23.400;2024-02-23T02:13:55;94687.97;;;6.65;65.88
22651;BME280;11492;42.646;23.400;2024-02-23T02:16:20;94692.31;;;6.64;66.12
22651;BME280;11492;42.646;23.400;2024-02-23T02:18:46;94669.56;;;6.46;66.81
22651;BME280;11492;42.646;23.400;2024-02-23T02:21:28;94694.22;;;6.54;66.23
22651;BME280;11492;42.646;23.400;2024-02-23T02:23:54;94699.06;;;6.57;66.13
22651;BME280;11492;42.646;23.400;2024-02-23T02:26:20;94700.31;;;6.61;65.63
22651;BME280;11492;42.646;23.400;2024-02-23T02:28:46;94689.41;;;6.59;65.99
22651;BME280;11492;42.646;23.400;2024-02-23T02:31:12;94700.66;;;6.58;65.84
22651;BME280;11492;42.646;23.400;2024-02-23T02:33:40;94682.56;;;6.44;66.71
22651;BME280;11492;42.646;23.400;2024-02-23T02:36:06;94688.97;;;6.48;66.33
22651;BME280;11492;42.646;23.400;2024-02-23T02:38:32;94706.75;;;6.49;67.13
22651;BME280;11492;42.646;23.400;2024-02-23T02:41:01;94695.50;;;6.50;66.88
22651;BME280;11492;42.646;23.400;2024-02-23T02:43:27;94699.69;;;6.44;67.12
22651;BME280;11492;42.646;23.400;2024-02-23T02:45:53;94700.00;;;6.41;67.06
22651;BME280;11492;42.646;23.400;2024-02-23T02:48:19;94700.00;;;6.41;66.39
22651;BME280;11492;42.646;23.400;2024-02-23T02:50:45;94697.75;;;6.46;66.12
22651;BME280;11492;42.646;23.400;2024-02-23T02:53:11;94706.41;;;6.45;67.18
22651;BME280;11492;42.646;23.400;2024-02-23T02:55:41;94701.31;;;6.29;67.69
22651;BME280;11492;42.646;23.400;2024-02-23T02:58:07;94692.66;;;6.14;67.63
22651;BME280;11492;42.646;23.400;2024-02-23T03:00:33;94698.59;;;6.22;67.59
22651;BME280;11492;42.646;23.400;2024-02-23T03:02:59;94672.16;;;6.14;67.25
22651;BME280;11492;42.646;23.400;2024-02-23T03:05:25;94695.88;;;6.32;67.48
22651;BME280;11492;42.646;23.400;2024-02-23T03:07:50;94678.25;;;6.21;67.72
22651;BME280;11492;42.646;23.400;2024-02-23T03:10:16;94689.78;;;6.25;67.57
22651;BME280;11492;42.646;23.400;2024-02-23T03:12:42;94661.25;;;6.04;67.62
22651;BME280;11492;42.646;23.400;2024-02-23T03:15:08;94703.53;;;6.24;67.53
22651;BME280;11492;42.646;23.400;2024-02-23T03:17:36;94700.19;;;6.16;67.37
22651;BME280;11492;42.646;23.400;2024-02-23T03:20:02;94669.75;;;5.97;67.69
22651;BME280;11492;42.646;23.400;2024-02-23T03:22:31;94703.53;;;6.24;67.52
22651;BME280;11492;42.646;23.400;2024-02-23T03:24:58;94686.72;;;6.14;67.44
22651;BME280;11492;42.646;23.400;2024-02-23T03:27:28;94701.31;;;6.29;67.63
22651;BME280;11492;42.646;23.400;2024-02-23T03:29:57;94680.16;;;6.19;66.89
22651;BME280;11492;42.646;23.400;2024-02-23T03:32:22;94700.81;;;6.25;68.04
22651;BME280;11492;42.646;23.400;2024-02-23T03:34:48;94679.22;;;6.12;68.17
22651;BME280;11492;42.646;23.400;2024-02-23T03:37:14;94692.31;;;6.25;67.76
22651;BME280;11492;42.646;23.400;2024-02-23T03:39:40;94712.19;;;6.23;67.47
22651;BME280;11492;42.646;23.400;2024-02-23T03:42:06;94716.69;;;6.13;67.93
22651;BME280;11492;42.646;23.400;2024-02-23T03:44:32;94689.44;;;6.04;67.85
22651;BME280;11492;42.646;23.400;2024-02-23T03:46:58;94700.19;;;6.23;68.01
22651;BME280;11492;42.646;23.400;2024-02-23T03:49:24;94718.63;;;6.27;67.71
22651;BME280;11492;42.646;23.400;2024-02-23T03:51:49;94724.53;;;6.27;67.96
22651;BME280;11492;42.646;23.400;2024-02-23T03:54:15;94717.31;;;6.15;68.44
22651;BME280;11492;42.646;23.400;2024-02-23T03:56:41;94706.28;;;6.07;68.29
22651;BME280;11492;42.646;23.400;2024-02-23T03:59:08;94706.91;;;6.01;68.37
22651;BME280;11492;42.646;23.400;2024-02-23T04:01:38;94705.63;;;5.97;68.80
22651;BME280;11492;42.646;23.400;2024-02-23T04:04:05;94697.47;;;6.09;68.16
22651;BME280;11492;42.646;23.400;2024-02-23T04:06:31;94714.75;;;6.15;68.13
22651;BME280;11492;42.646;23.400;2024-02-23T04:08:58;94719.56;;;6.18;67.88
22651;BME280;11492;42.646;23.400;2024-02-23T04:11:24;94712.53;;;6.12;68.52
22651;BME280;11492;42.646;23.400;2024-02-23T04:13:50;94708.34;;;6.19;67.83
22651;BME280;11492;42.646;23.400;2024-02-23T04:16:16;94725.31;;;6.20;68.16
22651;BME280;11492;42.646;23.400;2024-02-23T04:18:42;94721.16;;;6.19;68.43
22651;BME280;11492;42.646;23.400;2024-02-23T04:21:08;94703.22;;;5.88;68.65
22651;BME280;11492;42.646;23.400;2024-02-23T04:23:33;94716.66;;;6.05;68.50
22651;BME280;11492;42.646;23.400;2024-02-23T04:25:59;94712.06;;;6.17;68.25
22651;BME280;11492;42.646;23.400;2024-02-23T04:28:25;94706.13;;;6.24;67.83
22651;BME280;11492;42.646;23.400;2024-02-23T04:30:53;94717.81;;;6.26;67.75
22651;BME280;11492;42.646;23.400;2024-02-23T04:33:19;94718.13;;;6.23;68.09
22651;BME280;11492;42.646;23.400;2024-02-23T04:35:45;94719.41;;;6.20;68.35
22651;BME280;11492;42.646;23.400;2024-02-23T04:38:11;94716.03;;;6.19;68.04
22651;BME280;11492;42.646;23.400;2024-02-23T04:40:37;94712.69;;;6.11;68.17
22651;BME280;11492;42.646;23.400;2024-02-23T04:43:04;94733.03;;;6.12;68.66
22651;BME280;11492;42.646;23.400;2024-02-23T04:45:30;94682.56;;;5.81;68.67
22651;BME280;11492;42.646;23.400;2024-02-23T04:47:55;94733.34;;;6.01;69.05
22651;BME280;11492;42.646;23.400;2024-02-23T04:50:21;94748.97;;;5.83;69.11
22651;BME280;11492;42.646;23.400;2024-02-23T04:52:48;94714.72;;;5.84;68.41
22651;BME280;11492;42.646;23.400;2024-02-23T04:55:15;94730.75;;;5.94;68.90
22651;BME280;11492;42.646;23.400;2024-02-23T04:57:41;94704.47;;;5.76;68.28
22651;BME280;11492;42.646;23.400;2024-02-23T05:00:08;94720.66;;;5.84;68.75
22651;BME280;11492;42.646;23.400;2024-02-23T05:02:34;94708.28;;;5.64;69.11
22651;BME280;11492;42.646;23.400;2024-02-23T05:05:02;94737.09;;;5.74;69.67
22651;BME280;11492;42.646;23.400;2024-02-23T05:07:31;94743.53;;;5.78;69.12
22651;BME280;11492;42.646;23.400;2024-02-23T05:09:59;94746.09;;;5.78;69.56
22651;BME280;11492;42.646;23.400;2024-02-23T05:12:25;94750.41;;;5.70;69.00
22651;BME280;11492;42.646;23.400;2024-02-23T05:14:51;94744.47;;;5.69;69.38
22651;BME280;11492;42.646;23.400;2024-02-23T05:17:17;94728.09;;;5.54;69.23
22651;BME280;11492;42.646;23.400;2024-02-23T05:19:43;94713.59;;;5.30;69.53
22651;BME280;11492;42.646;23.400;2024-02-23T05:22:12;94746.94;;;5.53;70.28
22651;BME280;11492;42.646;23.400;2024-02-23T05:24:38;94705.25;;;5.20;69.76
22651;BME280;11492;42.646;23.400;2024-02-23T05:27:05;94754.22;;;5.33;70.63
22651;BME280;11492;42.646;23.400;2024-02-23T05:29:31;94768.66;;;5.42;69.71
22651;BME280;11492;42.646;23.400;2024-02-23T05:31:57;94742.56;;;5.30;70.25
22651;BME280;11492;42.646;23.400;2024-02-23T05:34:23;94759.56;;;5.47;70.92
22651;BME280;11492;42.646;23.400;2024-02-23T05:36:49;94756.72;;;5.50;70.66
22651;BME280;11492;42.646;23.400;2024-02-23T05:39:17;94764.56;;;5.56;70.58
22651;BME280;11492;42.646;23.400;2024-02-23T05:41:43;94727.38;;;5.37;70.64
22651;BME280;11492;42.646;23.400;2024-02-23T05:44:09;94753.47;;;5.48;70.11
22651;BME280;11492;42.646;23.400;2024-02-23T05:46:36;94767.91;;;5.57;70.07
22651;BME280;11492;42.646;23.400;2024-02-23T05:49:03;94774.97;;;5.63;70.91
22651;BME280;11492;42.646;23.400;2024-02-23T05:51:31;94773.09;;;5.65;70.07
22651;BME280;11492;42.646;23.400;2024-02-23T05:53:58;94767.75;;;5.50;71.09
22651;BME280;11492;42.646;23.400;2024-02-23T05:56:24;94772.53;;;5.53;70.83
22651;BME280;11492;42.646;23.400;2024-02-23T05:58:51;94767.91;;;5.57;70.81
22651;BME280;11492;42.646;23.400;2024-02-23T06:01:18;94783.47;;;5.63;70.17
22651;BME280;11492;42.646;23.400;2024-02-23T06:03:45;94791.47;;;5.68;70.52
22651;BME280;11492;42.646;23.400;2024-02-23T06:06:11;94767.00;;;5.66;70.06
22651;BME280;11492;42.646;23.400;2024-02-23T06:08:37;94754.66;;;5.61;70.42
22651;BME280;11492;42.646;23.400;2024-02-23T06:11:03;94787.06;;;5.78;70.13
22651;BME280;11492;42.646;23.400;2024-02-23T06:13:32;94783.06;;;5.83;70.52
22651;BME280;11492;42.646;23.400;2024-02-23T06:15:59;94764.47;;;5.73;70.29
22651;BME280;11492;42.646;23.400;2024-02-23T06:18:25;94779.88;;;5.81;70.55
22651;BME280;11492;42.646;23.400;2024-02-23T06:20:51;94763.22;;;5.77;69.81
22651;BME280;11492;42.646;23.400;2024-02-23T06:23:17;94752.81;;;5.71;69.93
22651;BME280;11492;42.646;23.400;2024-02-23T06:25:43;94796.91;;;6.06;69.50
22651;BME280;11492;42.646;23.400;2024-02-23T06:28:09;94797.72;;;6.14;69.45
22651;BME280;11492;42.646;23.400;2024-02-23T06:30:36;94770.81;;;6.02;69.17
22651;BME280;11492;42.646;23.400;2024-02-23T06:33:02;94782.03;;;6.17;69.45
22651;BME280;11492;42.646;23.400;2024-02-23T06:35:27;94755.59;;;6.09;69.42
22651;BME280;11492;42.646;23.400;2024-02-23T06:37:53;94797.13;;;6.44;68.87
22651;BME280;11492;42.646;23.400;2024-02-23T06:40:18;94783.19;;;6.54;68.41
22651;BME280;11492;42.646;23.400;2024-02-23T06:42:44;94795.38;;;6.68;68.36
22651;BME280;11492;42.646;23.400;2024-02-23T06:45:10;94790.69;;;6.71;67.94
22651;BME280;11492;42.646;23.400;2024-02-23T06:47:36;94788.59;;;6.82;67.98
22651;BME280;11492;42.646;23.400;2024-02-23T06:50:01;94780.78;;;6.84;68.37
22651;BME280;11492;42.646;23.400;2024-02-23T06:52:29;94791.97;;;6.91;67.61
22651;BME280;11492;42.646;23.400;2024-02-23T06:54:54;94799.34;;;7.01;67.29
22651;BME280;11492;42.646;23.400;2024-02-23T06:57:20;94791.59;;;7.17;67.45
22651;BME280;11492;42.646;23.400;2024-02-23T06:59:45;94789.34;;;7.30;66.79
22651;BME280;11492;42.646;23.400;2024-02-23T07:02:11;94791.03;;;7.45;65.21
22651;BME280;11492;42.646;23.400;2024-02-23T07:04:36;94792.63;;;7.54;65.95
22651;BME280;11492;42.646;23.400;2024-02-23T07:07:02;94799.16;;;7.64;65.76
22651;BME280;11492;42.646;23.400;2024-02-23T07:09:33;94809.06;;;7.75;64.87
22651;BME280;11492;42.646;23.400;2024-02-23T07:11:59;94799.09;;;7.80;64.97
22651;BME280;11492;42.646;23.400;2024-02-23T07:14:24;94781.75;;;7.82;65.14
22651;BME280;11492;42.646;23.400;2024-02-23T07:16:50;94776.75;;;7.88;64.56
22651;BME280;11492;42.646;23.400;2024-02-23T07:19:17;94799.63;;;8.13;63.68
22651;BME280;11492;42.646;23.400;2024-02-23T07:21:43;94780.28;;;8.17;63.43
22651;BME280;11492;42.646;23.400;2024-02-23T07:24:08;94800.13;;;8.31;63.40
22651;BME280;11492;42.646;23.400;2024-02-23T07:26:34;94794.66;;;8.34;63.23
22651;BME280;11492;42.646;23.400;2024-02-23T07:29:00;94742.69;;;8.16;62.85
22651;BME280;11492;42.646;23.400;2024-02-23T07:31:25;94778.13;;;8.50;62.08
22651;BME280;11492;42.646;23.400;2024-02-23T07:33:51;94763.03;;;8.47;61.96
22651;BME280;11492;42.646;23.400;2024-02-23T07:36:17;94769.31;;;8.67;61.79
22651;BME280;11492;42.646;23.400;2024-02-23T07:38:43;94770.88;;;8.76;61.70
22651;BME280;11492;42.646;23.400;2024-02-23T07:41:11;94781.88;;;8.84;61.43
22651;BME280;11492;42.646;23.400;2024-02-23T07:43:36;94785.19;;;8.93;61.39
22651;BME280;11492;42.646;23.400;2024-02-23T07:46:02;94764.59;;;8.93;61.23
22651;BME280;11492;42.646;23.400;2024-02-23T07:48:30;94791.88;;;9.16;61.87
22651;BME280;11492;42.646;23.400;2024-02-23T07:50:55;94785.41;;;9.20;60.49
22651;BME280;11492;42.646;23.400;2024-02-23T07:53:22;94773.78;;;9.38;61.03
22651;BME280;11492;42.646;23.400;2024-02-23T07:55:48;94786.16;;;9.85;62.37
22651;BME280;11492;42.646;23.400;2024-02-23T07:58:14;94781.06;;;10.05;60.74
22651;BME280;11492;42.646;23.400;2024-02-23T08:00:40;94788.06;;;10.11;59.41
22651;BME280;11492;42.646;23.400;2024-02-23T08:03:05;94771.91;;;10.23;58.64
22651;BME280;11492;42.646;23.400;2024-02-23T08:05:33;94738.88;;;10.13;59.17
22651;BME280;11492;42.646;23.400;2024-02-23T08:07:58;94764.09;;;10.52;59.64
22651;BME280;11492;42.646;23.400;2024-02-23T08:10:24;94749.41;;;10.73;58.16
22651;BME280;11492;42.646;23.400;2024-02-23T08:12:51;94761.78;;;11.04;56.95
22651;BME280;11492;42.646;23.400;2024-02-23T08:15:17;94776.66;;;11.29;57.12
22651;BME280;11492;42.646;23.400;2024-02-23T08:17:44;94765.97;;;11.59;55.02
22651;BME280;11492;42.646;23.400;2024-02-23T08:20:10;94775.81;;;11.76;54.24
22651;BME280;11492;42.646;23.400;2024-02-23T08:22:35;94755.59;;;11.99;54.01
22651;BME280;11492;42.646;23.400;2024-02-23T08:25:01;94770.84;;;12.34;52.89
22651;BME280;11492;42.646;23.400;2024-02-23T08:27:27;94760.63;;;12.85;51.62
22651;BME280;11492;42.646;23.400;2024-02-23T08:29:52;94764.47;;;15.60;45.54
22651;BME280;11492;42.646;23.400;2024-02-23T08:32:18;94756.41;;;18.04;40.10
22651;BME280;11492;42.646;23.400;2024-02-23T08:34:44;94749.22;;;19.97;36.15
22651;BME280;11492;42.646;23.400;2024-02-23T08:37:09;94754.25;;;21.61;33.41
22651;BME280;11492;42.646;23.400;2024-02-23T08:39:35;94736.09;;;22.41;31.82
22651;BME280;11492;42.646;23.400;2024-02-23T08:42:02;94742.50;;;23.83;30.43
22651;BME280;11492;42.646;23.400;2024-02-23T08:44:28;94734.75;;;24.41;28.63
22651;BME280;11492;42.646;23.400;2024-02-23T08:46:55;94749.34;;;24.24;28.51
22651;BME280;11492;42.646;23.400;2024-02-23T08:49:21;94754.22;;;24.69;28.14
22651;BME280;11492;42.646;23.400;2024-02-23T08:51:46;94747.91;;;24.55;28.11
22651;BME280;11492;42.646;23.400;2024-02-23T08:54:12;94748.94;;;24.79;28.17
22651;BME280;11492;42.646;23.400;2024-02-23T08:56:38;94743.31;;;25.33;27.37
22651;BME280;11492;42.646;23.400;2024-02-23T08:59:08;94751.78;;;25.30;27.34
22651;BME280;11492;42.646;23.400;2024-02-23T09:01:37;94725.53;;;24.38;28.49
22651;BME280;11492;42.646;23.400;2024-02-23T09:04:03;94736.28;;;24.56;27.88
22651;BME280;11492;42.646;23.400;2024-02-23T09:06:28;94744.31;;;24.07;28.30
22651;BME280;11492;42.646;23.400;2024-02-23T09:08:54;94724.31;;;23.62;28.54
22651;BME280;11492;42.646;23.400;2024-02-23T09:11:19;94741.44;;;23.70;28.88
22651;BME280;11492;42.646;23.400;2024-02-23T09:13:45;94738.19;;;24.36;28.22
22651;BME280;11492;42.646;23.400;2024-02-23T09:16:11;94742.25;;;23.70;28.59
22651;BME280;11492;42.646;23.400;2024-02-23T09:18:37;94742.34;;;24.62;28.01
22651;BME280;11492;42.646;23.400;2024-02-23T09:21:03;94730.28;;;25.03;27.16
22651;BME280;11492;42.646;23.400;2024-02-23T09:23:28;94724.50;;;25.39;26.41
22651;BME280;11492;42.646;23.400;2024-02-23T09:25:54;94740.75;;;25.23;25.99
22651;BME280;11492;42.646;23.400;2024-02-23T09:28:20;94741.84;;;25.17;26.14
22651;BME280;11492;42.646;23.400;2024-02-23T09:30:45;94742.38;;;25.62;25.74
22651;BME280;11492;42.646;23.400;2024-02-23T09:33:11;94751.56;;;25.69;25.73
22651;BME280;11492;42.646;23.400;2024-02-23T09:35:37;94743.16;;;25.62;25.49
22651;BME280;11492;42.646;23.400;2024-02-23T09:38:02;94747.94;;;25.55;25.38
22651;BME280;11492;42.646;23.400;2024-02-23T09:40:28;94733.84;;;26.26;24.90
22651;BME280;11492;42.646;23.400;2024-02-23T09:42:58;94741.34;;;26.19;24.82
22651;BME280;11492;42.646;23.400;2024-02-23T09:45:25;94738.00;;;25.38;25.56
22651;BME280;11492;42.646;23.400;2024-02-23T09:47:53;94744.66;;;24.73;26.09
22651;BME280;11492;42.646;23.400;2024-02-23T09:50:20;94745.91;;;23.35;27.88
22651;BME280;11492;42.646;23.400;2024-02-23T09:52:47;94748.06;;;22.63;29.00
22651;BME280;11492;42.646;23.400;2024-02-23T09:55:16;94737.16;;;23.10;28.48
22651;BME280;11492;42.646;23.400;2024-02-23T09:57:43;94691.59;;;23.49;27.22
22651;BME280;11492;42.646;23.400;2024-02-23T10:00:10;94708.50;;;23.52;27.73
22651;BME280;11492;42.646;23.400;2024-02-23T10:02:36;94725.84;;;24.02;27.05
22651;BME280;11492;42.646;23.400;2024-02-23T10:05:02;94703.94;;;24.07;26.87
22651;BME280;11492;42.646;23.400;2024-02-23T10:07:28;94718.25;;;23.67;27.41
22651;BME280;11492;42.646;23.400;2024-02-23T10:09:54;94733.56;;;23.60;28.43
22651;BME280;11492;42.646;23.400;2024-02-23T10:12:21;94725.31;;;23.96;27.81
22651;BME280;11492;42.646;23.400;2024-02-23T10:14:46;94710.66;;;24.57;25.83
22651;BME280;11492;42.646;23.400;2024-02-23T10:17:12;94722.81;;;25.15;25.67
22651;BME280;11492;42.646;23.400;2024-02-23T10:19:38;94710.13;;;25.88;25.67
22651;BME280;11492;42.646;23.400;2024-02-23T10:22:04;94711.06;;;25.97;25.11
22651;BME280;11492;42.646;23.400;2024-02-23T10:24:30;94708.06;;;27.00;24.16
22651;BME280;11492;42.646;23.400;2024-02-23T10:26:56;94707.91;;;27.82;22.89
22651;BME280;11492;42.646;23.400;2024-02-23T10:29:23;94669.44;;;28.64;22.57
22651;BME280;11492;42.646;23.400;2024-02-23T10:31:51;94691.31;;;28.48;22.10
22651;BME280;11492;42.646;23.400;2024-02-23T10:34:19;94697.03;;;28.68;21.54
22651;BME280;11492;42.646;23.400;2024-02-23T10:36:45;94687.41;;;29.20;21.85
22651;BME280;11492;42.646;23.400;2024-02-23T10:39:16;94698.78;;;28.86;20.95
22651;BME280;11492;42.646;23.400;2024-02-23T10:41:47;94698.19;;;28.76;21.12
22651;BME280;11492;42.646;23.400;2024-02-23T10:44:16;94685.25;;;26.12;22.77
22651;BME280;11492;42.646;23.400;2024-02-23T10:46:44;94679.59;;;24.92;24.24
22651;BME280;11492;42.646;23.400;2024-02-23T10:49:11;94673.09;;;24.12;24.70
22651;BME280;11492;42.646;23.400;2024-02-23T10:51:39;94682.38;;;23.41;25.34
22651;BME280;11492;42.646;23.400;2024-02-23T10:54:06;94686.78;;;22.87;26.64
22651;BME280;11492;42.646;23.400;2024-02-23T10:56:32;94682.13;;;23.57;25.71
22651;BME280;11492;42.646;23.400;2024-02-23T10:58:58;94685.00;;;23.41;26.01
22651;BME280;11492;42.646;23.400;2024-02-23T11:01:24;94669.13;;;22.92;26.57
22651;BME280;11492;42.646;23.400;2024-02-23T11:03:51;94650.94;;;23.89;25.40
22651;BME280;11492;42.646;23.400;2024-02-23T11:06:19;94638.75;;;24.17;24.53
22651;BME280;11492;42.646;23.400;2024-02-23T11:08:49;94653.59;;;23.74;26.14
22651;BME280;11492;42.646;23.400;2024-02-23T11:11:16;94650.63;;;24.67;24.46
22651;BME280;11492;42.646;23.400;2024-02-23T11:13:45;94647.47;;;24.70;24.17
22651;BME280;11492;42.646;23.400;2024-02-23T11:16:21;94645.09;;;25.49;23.19
22651;BME280;11492;42.646;23.400;2024-02-23T11:18:48;94649.34;;;27.06;22.16
22651;BME280;11492;42.646;23.400;2024-02-23T11:21:14;94622.47;;;28.73;21.09
22651;BME280;11492;42.646;23.400;2024-02-23T11:23:43;94613.94;;;30.06;19.58
22651;BME280;11492;42.646;23.400;2024-02-23T11:26:11;94630.94;;;30.26;19.15
22651;BME280;11492;42.646;23.400;2024-02-23T11:28:57;94623.09;;;30.59;19.23
22651;BME280;11492;42.646;23.400;2024-02-23T11:31:24;94576.81;;;30.64;19.02
22651;BME280;11492;42.646;23.400;2024-02-23T11:33:55;94613.22;;;30.68;19.41
22651;BME280;11492;42.646;23.400;2024-02-23T11:36:31;94619.25;;;30.90;18.85
22651;BME280;11492;42.646;23.400;2024-02-23T11:38:59;94619.50;;;32.06;18.55
22651;BME280;11492;42.646;23.400;2024-02-23T11:41:27;94613.22;;;32.02;18.57
22651;BME280;11492;42.646;23.400;2024-02-23T11:43:54;94623.16;;;32.75;17.65
22651;BME280;11492;42.646;23.400;2024-02-23T11:46:26;94607.78;;;32.35;17.62
22651;BME280;11492;42.646;23.400;2024-02-23T11:48:52;94612.22;;;32.88;17.01
22651;BME280;11492;42.646;23.400;2024-02-23T11:51:22;94581.94;;;33.16;17.26
22651;BME280;11492;42.646;23.400;2024-02-23T11:53:49;94604.28;;;34.04;17.21
22651;BME280;11492;42.646;23.400;2024-02-23T11:56:16;94604.66;;;33.70;16.59
22651;BME280;11492;42.646;23.400;2024-02-23T11:58:43;94599.41;;;32.73;17.14
22651;BME280;11492;42.646;23.400;2024-02-23T12:01:09;94582.50;;;32.81;17.16
22651;BME280;11492;42.646;23.400;2024-02-23T12:03:35;94584.97;;;33.14;16.87
22651;BME280;11492;42.646;23.400;2024-02-23T12:06:02;94583.19;;;33.38;16.68
22651;BME280;11492;42.646;23.400;2024-02-23T12:08:30;94596.78;;;32.28;17.22
22651;BME280;11492;42.646;23.400;2024-02-23T12:11:14;94563.25;;;30.44;18.33
22651;BME280;11492;42.646;23.400;2024-02-23T12:13:41;94579.88;;;31.12;17.77
22651;BME280;11492;42.646;23.400;2024-02-23T12:16:08;94563.69;;;28.96;18.95
22651;BME280;11492;42.646;23.400;2024-02-23T12:18:35;94578.25;;;28.24;19.45
22651;BME280;11492;42.646;23.400;2024-02-23T12:21:05;94585.09;;;30.08;18.02
22651;BME280;11492;42.646;23.400;2024-02-23T12:23:41;94537.59;;;28.85;18.81
22651;BME280;11492;42.646;23.400;2024-02-23T12:26:08;94570.78;;;30.42;18.59
22651;BME280;11492;42.646;23.400;2024-02-23T12:28:34;94568.44;;;27.98;19.94
22651;BME280;11492;42.646;23.400;2024-02-23T12:31:01;94552.50;;;27.85;20.83
22651;BME280;11492;42.646;23.400;2024-02-23T12:33:29;94544.88;;;27.78;20.81
22651;BME280;11492;42.646;23.400;2024-02-23T12:35:58;94570.56;;;28.36;20.23
22651;BME280;11492;42.646;23.400;2024-02-23T12:38:24;94572.97;;;28.85;20.31
22651;BME280;11492;42.646;23.400;2024-02-23T12:40:51;94543.97;;;28.62;19.85
22651;BME280;11492;42.646;23.400;2024-02-23T12:43:17;94549.03;;;29.50;19.46
22651;BME280;11492;42.646;23.400;2024-02-23T12:45:44;94542.19;;;30.26;19.07
22651;BME280;11492;42.646;23.400;2024-02-23T12:48:15;94544.78;;;29.49;19.67
22651;BME280;11492;42.646;23.400;2024-02-23T12:50:42;94498.44;;;29.20;19.73
22651;BME280;11492;42.646;23.400;2024-02-23T12:53:09;94539.09;;;30.40;19.07